createdAt,value
2022-12-27T00:02:06.570Z,0.65
2022-12-27T00:04:36.763Z,0.60
2022-12-27T00:07:06.868Z,0.60
2022-12-27T00:09:37.342Z,0.60
2022-12-27T00:12:07.599Z,0.50
2022-12-27T00:14:37.739Z,0.50
2022-12-27T00:17:08.856Z,0.60
2022-12-27T00:19:39.278Z,0.52
2022-12-27T00:22:09.255Z,0.50
2022-12-27T00:24:39.813Z,0.50
2022-12-27T03:25:46.978Z,0.50
2022-12-27T03:28:44.859Z,0.50
2022-12-27T03:31:46.940Z,0.40
2022-12-27T03:34:34.207Z,0.40
2022-12-27T03:37:32.481Z,0.40
2022-12-27T03:40:13.079Z,0.50
2022-12-27T03:43:11.548Z,0.50
2022-12-27T03:46:25.373Z,0.40
2022-12-27T03:49:25.219Z,0.47
2022-12-27T03:52:17.583Z,0.50
2022-12-27T03:54:50.475Z,0.40
2022-12-27T03:57:24.805Z,0.40
2022-12-27T03:59:55.405Z,0.40
2022-12-27T04:02:25.687Z,0.50
2022-12-27T04:04:56.209Z,0.38
2022-12-27T04:07:26.612Z,0.68
2022-12-27T04:10:15.288Z,0.40
2022-12-27T04:13:04.163Z,0.50
2022-12-27T04:15:52.675Z,0.43
2022-12-27T04:18:40.628Z,0.32
2022-12-27T04:21:28.879Z,0.50
2022-12-27T04:24:16.917Z,0.40
2022-12-27T14:55:24.955Z,0.90
2022-12-27T14:58:14.461Z,0.73
2022-12-27T15:01:20.613Z,0.80
2022-12-27T15:04:09.009Z,0.90
2022-12-27T15:07:21.366Z,1.00
2022-12-27T15:10:17.479Z,0.88
2022-12-27T15:13:08.569Z,0.90
2022-12-27T15:16:15.291Z,1.00
2022-12-27T15:21:48.588Z,0.85
2022-12-27T15:24:37.499Z,1.00
2022-12-27T15:27:34.701Z,0.88
2022-12-27T15:30:45.765Z,0.98
2022-12-27T15:33:48.302Z,1.10
2022-12-27T15:36:20.676Z,0.75
2022-12-27T15:38:54.756Z,1.10
2022-12-27T15:41:53.090Z,0.80
2022-12-27T15:44:46.553Z,0.88
2022-12-27T15:47:22.543Z,1.02
2022-12-27T15:50:02.665Z,0.85
2022-12-27T15:52:47.457Z,1.00
2022-12-27T15:56:02.789Z,0.80
2022-12-27T15:58:33.058Z,1.00
2022-12-27T16:01:31.518Z,1.05
2022-12-27T16:04:21.950Z,1.00
2022-12-27T16:06:54.251Z,1.23
2022-12-27T16:09:29.179Z,0.88
2022-12-27T16:12:05.382Z,0.90
2022-12-27T16:14:41.911Z,0.90
2022-12-27T16:17:52.452Z,0.93
2022-12-27T16:20:24.909Z,0.80
2022-12-27T16:23:01.249Z,0.82
2022-12-27T16:25:33.848Z,0.90
2022-12-27T16:28:11.116Z,0.90
2022-12-27T16:30:50.729Z,0.73
2022-12-27T16:33:30.098Z,0.90
2022-12-27T16:36:18.080Z,0.80
2022-12-27T16:39:28.891Z,0.70
2022-12-27T16:41:59.037Z,0.80
2022-12-27T16:44:37.872Z,0.80
2022-12-27T16:47:15.916Z,0.70
2022-12-27T16:50:10.110Z,0.80
2022-12-27T16:52:55.411Z,0.60
2022-12-27T16:56:01.777Z,0.75
2022-12-27T16:58:41.220Z,0.90
2022-12-27T17:01:29.756Z,0.80
2022-12-27T17:04:01.730Z,1.00
2022-12-27T17:06:34.019Z,0.80
2022-12-27T17:09:14.815Z,1.00
2022-12-27T17:12:08.639Z,1.00
2022-12-27T17:14:41.282Z,1.17
2022-12-27T17:17:23.721Z,1.15
